Flight Track Log - Related Links

Times and Time Zones

All times are in EDT time to prevent confusion due to time zone crossing. See the SWA1377 flight status page for this flight to view local times or setup timezone preferences in your user account.

Time Position Orientation Groundspeed Altitude Reporting Facility
EDT Latitude Longitude Course Direction KTS MPH feet Rate Location/Type
Thu 07:08:38 AM 29.5483 -98.4464 42° Northeast 149 171 2,000  Level Houston Center
Thu 07:08:56 AM 29.5581 -98.4364 42° Northeast 142 163 2,700 1,899 Climbing Houston Center
Thu 07:09:57 AM 29.6050 -98.4150 22° Northeast 192 221 4,500 1,934 Climbing Houston Center
Thu 07:10:57 AM 29.6792 -98.4108 North 281 323 6,600 2,975 Climbing Houston Center
Thu 07:11:58 AM 29.7653 -98.4075 North 289 333 10,500 3,223 Climbing Houston Center
Thu 07:12:58 AM 29.8606 -98.4033 North 342 394 13,100 3,124 Climbing Houston Center
Thu 07:13:59 AM 29.9592 -98.3997 North 354 407 16,800 3,000 Climbing Houston Center
Thu 07:15:00 AM 30.0589 -98.3953 North 358 412 19,200 2,380 Climbing Houston Center
Thu 07:16:00 AM 30.1653 -98.3847 North 381 438 21,600 2,331 Climbing Houston Center
Thu 07:17:01 AM 30.2794 -98.3669 North 411 473 23,900 2,066 Climbing Houston Center
Thu 07:18:02 AM 30.3856 -98.3536 North 426 490 25,800 2,361 Climbing Houston Center
Thu 07:19:03 AM 30.5069 -98.3347 North 433 498 28,700 2,083 Climbing Houston Center
Thu 07:20:03 AM 30.6250 -98.3181 North 425 489 30,000 1,240 Climbing Houston Center
Thu 07:21:04 AM 30.7511 -98.2981 North 443 510 31,200 1,475 Climbing Houston Center
Thu 07:22:05 AM 30.8825 -98.2792 North 463 533 33,000 1,776 Climbing Houston Center
Thu 07:22:42 AM 30.9639 -98.2683 North 461 531 34,100 1,794 Climbing Fort Worth Center
Thu 07:23:42 AM 31.1061 -98.2456 North 461 531 35,900 1,650 Climbing Fort Worth Center
Thu 07:24:42 AM 31.2294 -98.2297 North 460 529 37,400 1,350 Climbing Fort Worth Center
Thu 07:25:42 AM 31.3528 -98.2111 North 447 514 38,600 800 Climbing Fort Worth Center
Thu 07:26:42 AM 31.4781 -98.1906 North 447 514 39,000 200 Climbing Fort Worth Center
Thu 07:27:42 AM 31.6036 -98.1694 North 447 514 39,000  Level Fort Worth Center
Thu 07:28:42 AM 31.7186 -98.0947 29° Northeast 460 529 39,000  Level Fort Worth Center
Thu 07:29:42 AM 31.8319 -98.0075 33° Northeast 468 539 39,000  Level Fort Worth Center
Thu 07:30:42 AM 31.9344 -97.9300 33° Northeast 478 550 39,000  Level Fort Worth Center
Thu 07:31:42 AM 32.0456 -97.8422 34° Northeast 478 550 39,000  Level Fort Worth Center
Thu 07:32:42 AM 32.1647 -97.7472 34° Northeast 473 544 39,000  Level Fort Worth Center
Thu 07:33:42 AM 32.2758 -97.6617 33° Northeast 479 551 39,000  Level Fort Worth Center
Thu 07:34:42 AM 32.3864 -97.5783 32° Northeast 479 551 39,000  Level Fort Worth Center
Thu 07:35:42 AM 32.4994 -97.4872 34° Northeast 474 545 39,000  Level Fort Worth Center
Thu 07:36:42 AM 32.6100 -97.4011 33° Northeast 482 555 39,000  Level Fort Worth Center
Thu 07:37:42 AM 32.7228 -97.3122 34° Northeast 482 555 39,000  Level Fort Worth Center
Thu 07:38:42 AM 32.8333 -97.2181 36° Northeast 489 563 39,000  Level Fort Worth Center
Thu 07:39:42 AM 32.9458 -97.1214 36° Northeast 500 575 39,000  Level Fort Worth Center
Thu 07:40:42 AM 33.0603 -97.0194 37° Northeast 500 575 39,000  Level Fort Worth Center
Thu 07:41:42 AM 33.1686 -96.9294 35° Northeast 495 570 39,000  Level Fort Worth Center
Thu 07:42:42 AM 33.2789 -96.8344 36° Northeast 489 563 39,000  Level Fort Worth Center
Thu 07:43:42 AM 33.3869 -96.7417 36° Northeast 484 557 39,000  Level Fort Worth Center
Thu 07:44:42 AM 33.4969 -96.6436 37° Northeast 484 557 39,000  Level Fort Worth Center
Thu 07:45:42 AM 33.6047 -96.5506 36° Northeast 484 557 39,000  Level Fort Worth Center
Thu 07:46:42 AM 33.7128 -96.4544 36° Northeast 479 551 39,000  Level Fort Worth Center
Thu 07:47:42 AM 33.8225 -96.3558 37° Northeast 479 551 39,000  Level Fort Worth Center
Thu 07:48:42 AM 33.9197 -96.2722 36° Northeast 479 551 39,000  Level Fort Worth Center
Thu 07:49:42 AM 34.0275 -96.1731 37° Northeast 474 545 39,000  Level Fort Worth Center
Thu 07:50:42 AM 34.1286 -96.0811 37° Northeast 474 545 39,000  Level Fort Worth Center
Thu 07:51:42 AM 34.2383 -95.9842 36° Northeast 467 537 39,000  Level Fort Worth Center
Thu 07:52:42 AM 34.3456 -95.8867 37° Northeast 478 550 39,000  Level Fort Worth Center
Thu 07:53:42 AM 34.4528 -95.7892 37° Northeast 478 550 39,000  Level Fort Worth Center
Thu 07:54:42 AM 34.5622 -95.6911 36° Northeast 478 550 39,000  Level Fort Worth Center
Thu 07:56:33 AM 34.7631 -95.5164 36° Northeast 471 542 39,000  Level Memphis Center
Thu 07:57:33 AM 34.8692 -95.4167 38° Northeast 471 542 39,000  Level Memphis Center
Thu 07:58:33 AM 34.9778 -95.3142 38° Northeast 471 542 39,000  Level Memphis Center
Thu 07:59:33 AM 35.0858 -95.2164 37° Northeast 477 549 39,000  Level Memphis Center
Thu 08:00:33 AM 35.1919 -95.1158 38° Northeast 477 549 39,000  Level Memphis Center
Thu 08:01:33 AM 35.3000 -95.0178 37° Northeast 477 549 39,000  Level Memphis Center
Thu 08:02:33 AM 35.4081 -94.9169 37° Northeast 477 549 39,000  Level Memphis Center
Thu 08:03:33 AM 35.5161 -94.8131 38° Northeast 482 555 39,000  Level Memphis Center
Thu 08:04:33 AM 35.6217 -94.7139 37° Northeast 482 555 39,000  Level Memphis Center
Thu 08:05:33 AM 35.7294 -94.6122 37° Northeast 482 555 39,000  Level Memphis Center
Thu 08:06:33 AM 35.8392 -94.5106 37° Northeast 482 555 39,000  Level Memphis Center
Thu 08:07:33 AM 35.9447 -94.4081 38° Northeast 482 555 39,000  Level Memphis Center
Thu 08:08:33 AM 36.0525 -94.3056 38° Northeast 477 549 39,000  Level Memphis Center
Thu 08:09:33 AM 36.1597 -94.2028 38° Northeast 477 549 39,000  Level Memphis Center
Thu 08:10:33 AM 36.2692 -94.1022 37° Northeast 482 555 39,000  Level Memphis Center
Thu 08:12:04 AM 36.4506 -93.9786 29° Northeast 473 544 39,000  Level Kansas City Center
Thu 08:13:04 AM 36.5650 -93.8978 30° Northeast 472 543 39,000  Level Kansas City Center
Thu 08:14:07 AM 36.6800 -93.8169 29° Northeast 475 547 39,000  Level Kansas City Center
Thu 08:15:06 AM 36.7997 -93.7328 29° Northeast 474 545 39,000  Level Kansas City Center
Thu 08:16:08 AM 36.9128 -93.6519 30° Northeast 468 539 39,000  Level Kansas City Center
Thu 08:17:09 AM 37.0264 -93.5694 30° Northeast 468 539 39,000  Level Kansas City Center
Thu 08:18:10 AM 37.1397 -93.4892 29° Northeast 467 537 39,000  Level Kansas City Center
Thu 08:19:13 AM 37.2522 -93.4092 30° Northeast 463 533 39,000  Level Kansas City Center
Thu 08:20:14 AM 37.3664 -93.3289 29° Northeast 465 535 39,000  Level Kansas City Center
Thu 08:21:15 AM 37.4725 -93.2269 37° Northeast 476 548 39,000  Level Kansas City Center
Thu 08:22:17 AM 37.5808 -93.1275 36° Northeast 478 550 39,000  Level Kansas City Center
Thu 08:23:19 AM 37.6911 -93.0264 36° Northeast 485 558 39,000  Level Kansas City Center
Thu 08:24:19 AM 37.8219 -92.9025 37° Northeast 486 559 39,000  Level Kansas City Center
Thu 08:25:21 AM 37.9308 -92.8000 37° Northeast 484 557 39,000  Level Kansas City Center
Thu 08:26:23 AM 38.0242 -92.7119 37° Northeast 480 552 39,000  Level Kansas City Center
Thu 08:27:23 AM 38.1308 -92.6122 36° Northeast 477 549 39,000  Level Kansas City Center
Thu 08:28:23 AM 38.2569 -92.4931 37° Northeast 478 550 39,000  Level Kansas City Center
Thu 08:29:25 AM 38.3656 -92.3894 37° Northeast 480 552 39,000  Level Kansas City Center
Thu 08:30:26 AM 38.4736 -92.2886 36° Northeast 479 551 39,000  Level Kansas City Center
Thu 08:31:29 AM 38.5797 -92.1861 37° Northeast 477 549 39,000  Level Kansas City Center
Thu 08:32:31 AM 38.6864 -92.0836 37° Northeast 476 548 39,000  Level Kansas City Center
Thu 08:33:32 AM 38.7925 -91.9797 37° Northeast 477 549 39,000  Level Kansas City Center
Thu 08:34:33 AM 38.8989 -91.8761 37° Northeast 477 549 39,000  Level Kansas City Center
Thu 08:35:34 AM 39.0039 -91.7747 37° Northeast 475 547 39,000  Level Kansas City Center
Thu 08:36:35 AM 39.1056 -91.6756 37° Northeast 471 542 39,000  Level Kansas City Center
Thu 08:37:36 AM 39.2092 -91.5678 39° Northeast 473 544 39,000  Level Kansas City Center
Thu 08:38:39 AM 39.3081 -91.4511 42° Northeast 479 551 39,000  Level Kansas City Center
Thu 08:39:40 AM 39.4058 -91.3350 43° Northeast 478 550 39,000  Level Kansas City Center
Thu 08:40:41 AM 39.5222 -91.1986 42° Northeast 473 544 39,000  Level Kansas City Center
Thu 08:41:43 AM 39.6203 -91.0814 43° Northeast 475 547 39,000  Level Kansas City Center
Thu 08:42:44 AM 39.7189 -90.9647 42° Northeast 477 549 39,000  Level Kansas City Center
Thu 08:43:44 AM 39.8222 -90.8389 43° Northeast 479 551 39,000 -99 Level Kansas City Center
Thu 08:44:45 AM 39.9197 -90.7233 42° Northeast 476 548 38,800 -1,248 Descending Kansas City Center
Thu 08:45:49 AM 40.0158 -90.6089 42° Northeast 470 541 36,400 -2,634 Descending Kansas City Center
Thu 08:46:48 AM 40.1114 -90.4917 43° Northeast 470 541 33,400 -2,939 Descending Kansas City Center
Thu 08:47:27 AM 40.1689 -90.4231 42° Northeast 470 541 31,600 -1,426 Descending Chicago Center
Thu 08:48:29 AM 40.2619 -90.3083 43° Northeast 466 536 31,000 -488 Descending Chicago Center
Thu 08:49:30 AM 40.3517 -90.1986 43° Northeast 444 511 30,600 -780 Descending Chicago Center
Thu 08:50:32 AM 40.4614 -90.0631 43° Northeast 451 519 29,400 -1,258 Descending Chicago Center
Thu 08:51:34 AM 40.5475 -89.9561 43° Northeast 447 514 28,000 -1,790 Descending Chicago Center
Thu 08:52:36 AM 40.6347 -89.8492 43° Northeast 433 498 25,700 -2,129 Descending Chicago Center
Thu 08:53:38 AM 40.7089 -89.7344 50° Northeast 419 482 23,600 -2,244 Descending Chicago Center
Thu 08:54:39 AM 40.7747 -89.5739 62° Northeast 417 480 21,100 -2,146 Descending Chicago Center
Thu 08:55:41 AM 40.8278 -89.4500 60° Northeast 405 466 19,200 -1,839 Descending Chicago Center
Thu 08:56:43 AM 40.8803 -89.3289 60° Northeast 388 447 17,300 -1,065 Descending Chicago Center
Thu 08:57:45 AM 40.9333 -89.2064 60° Northeast 385 443 17,000 -293 Descending Chicago Center
Thu 08:58:46 AM 40.9828 -89.0892 61° Northeast 376 433 16,700 -634 Descending Chicago Center
Thu 08:59:48 AM 41.0261 -88.9839 61° Northeast 335 386 15,700 -968 Descending Chicago Center
Thu 09:00:50 AM 41.0708 -88.8714 62° Northeast 340 391 14,700 -1,065 Descending Chicago Center
Thu 09:01:52 AM 41.0667 -88.7139 92° East 358 412 13,500 -1,073 Descending Chicago Center
Thu 09:02:53 AM 41.1183 -88.6233 53° Northeast 319 367 12,500 -1,268 Descending Chicago Center
Thu 09:03:55 AM 41.1839 -88.5497 40° Northeast 308 354 10,900 -1,500 Descending Chicago Center
Thu 09:04:57 AM 41.2531 -88.4881 34° Northeast 301 346 9,400 -1,694 Descending Chicago Center
Thu 09:05:59 AM 41.3239 -88.4475 23° Northeast 280 322 7,400 -1,659 Descending Chicago Center
Thu 09:07:00 AM 41.3772 -88.3758 45° Northeast 282 325 6,000 -683 Descending Chicago Center
Thu 09:08:02 AM 41.4219 -88.2617 62° Northeast 288 331 6,000  Level Chicago Center
Thu 09:09:04 AM 41.4594 -88.1672 62° Northeast 287 330 6,000 -97 Level Chicago Center
Thu 09:10:06 AM 41.4972 -88.0706 62° Northeast 287 330 5,800 -484 Descending Chicago Center
Thu 09:11:08 AM 41.5244 -87.9661 71° East 296 341 5,000 -387 Descending Chicago Center
Thu 09:12:10 AM 41.5497 -87.8678 71° East 287 330 5,000  Level Chicago Center
Thu 09:13:11 AM 41.5614 -87.7686 81° East 278 320 5,000  Level Chicago Center
Thu 09:14:13 AM 41.5633 -87.6797 88° East 257 296 5,000 -145 Level Chicago Center
Thu 09:15:15 AM 41.5647 -87.5992 89° East 237 273 4,700 -532 Descending Chicago Center
Thu 09:16:17 AM 41.5831 -87.5319 70° East 221 254 3,900 -823 Descending Chicago Center
Thu 09:17:19 AM 41.6319 -87.5428 351° North 181 208 3,000 -439 Descending Chicago Center
Thu 09:18:20 AM 41.6636 -87.5797 319° Northwest 163 188 3,000  Level Chicago Center
Thu 09:19:22 AM 41.6917 -87.6206 313° West 156 180 3,000 -242 Level Chicago Center
Thu 09:20:24 AM 41.7183 -87.6592 313° West 149 171 2,500 -581 Descending Chicago Center
Thu 09:21:26 AM 41.7419 -87.6925 314° West 139 160 1,800 -726 Descending Chicago Center
Thu 09:22:28 AM 41.7683 -87.7294 314° West 125 144 1,000 -774 Descending Chicago Center

Login

Don't have an account? Register now (free) for customized features, flight alerts, and more!